Time;durP1;ratioP1;P1;durP2;ratioP2;P2;SDS_P1;SDS_P2;PMS_P1;PMS_P2;Temp;Humidity;BMP_temperature;BMP_pressure;BME280_temperature;BME280_humidity;BME280_pressure;Samples;Min_cycle;Max_cycle;Signal;HPM_P1;HPM_P2
2021/08/19 00:00:50;;;;;;;9.35;6.55;;;;;;;;;;2139946;27;20065;-44
2021/08/19 00:01:51;;;;;;;8.43;6.47;;;;;;;;;;2138692;27;20054;-45
2021/08/19 00:02:52;;;;;;;8.48;6.03;;;;;;;;;;2136575;27;20365;-44
2021/08/19 00:03:54;;;;;;;9.15;6.40;;;;;;;;;;2139979;27;20141;-45
2021/08/19 00:04:55;;;;;;;8.82;6.68;;;;;;;;;;2137996;27;20077;-45
2021/08/19 00:05:56;;;;;;;9.93;7.37;;;;;;;;;;2137051;27;20530;-44
2021/08/19 00:06:57;;;;;;;9.15;6.75;;;;;;;;;;2139729;27;20144;-45
2021/08/19 00:07:58;;;;;;;8.87;6.53;;;;;;;;;;2137698;27;20047;-44
2021/08/19 00:08:59;;;;;;;8.40;7.00;;;;;;;;;;2137312;27;20095;-44
2021/08/19 00:10:00;;;;;;;9.37;7.43;;;;;;;;;;2139771;27;20125;-44
2021/08/19 00:11:01;;;;;;;8.93;6.75;;;;;;;;;;2137472;27;20050;-45
2021/08/19 00:12:03;;;;;;;8.50;6.60;;;;;;;;;;2138494;27;20091;-44
2021/08/19 00:13:05;;;;;;;7.43;6.28;;;;;;;;;;2139796;27;20098;-45
2021/08/19 00:14:06;;;;;;;9.05;6.65;;;;;;;;;;2135496;27;20053;-44
2021/08/19 00:15:07;;;;;;;8.43;6.55;;;;;;;;;;2131177;27;20051;-44
2021/08/19 00:16:08;;;;;;;9.68;6.00;;;;;;;;;;2130914;27;20125;-45
2021/08/19 00:17:09;;;;;;;10.55;6.72;;;;;;;;;;2137259;27;20038;-44
2021/08/19 00:18:11;;;;;;;11.13;6.93;;;;;;;;;;2139752;27;20059;-45
2021/08/19 00:19:11;;;;;;;8.45;6.45;;;;;;;;;;2137375;27;20049;-43
2021/08/19 00:20:13;;;;;;;10.40;6.80;;;;;;;;;;2138860;27;20046;-45
2021/08/19 00:21:14;;;;;;;9.90;6.40;;;;;;;;;;2139190;27;20444;-45
2021/08/19 00:22:15;;;;;;;8.63;6.67;;;;;;;;;;2137518;27;20034;-45
2021/08/19 00:23:16;;;;;;;7.03;6.18;;;;;;;;;;2139761;27;20061;-44
2021/08/19 00:24:17;;;;;;;12.20;7.00;;;;;;;;;;2141237;27;20439;-44
2021/08/19 00:25:18;;;;;;;9.70;6.25;;;;;;;;;;2138564;27;20053;-44
2021/08/19 00:26:19;;;;;;;9.77;6.07;;;;;;;;;;2133508;27;20050;-44
2021/08/19 00:27:20;;;;;;;10.27;6.35;;;;;;;;;;2132482;27;20133;-43
2021/08/19 00:28:21;;;;;;;9.47;6.47;;;;;;;;;;2135150;27;20546;-45
2021/08/19 00:29:22;;;;;;;9.48;6.93;;;;;;;;;;2140377;27;20137;-43
2021/08/19 00:30:23;;;;;;;9.17;6.23;;;;;;;;;;2141232;27;20133;-44
2021/08/19 00:31:24;;;;;;;16.52;6.03;;;;;;;;;;2136661;27;20038;-44
2021/08/19 00:32:25;;;;;;;7.33;5.77;;;;;;;;;;2134558;27;20038;-44
2021/08/19 00:33:26;;;;;;;8.35;5.75;;;;;;;;;;2131684;27;20049;-44
2021/08/19 00:34:27;;;;;;;10.03;6.27;;;;;;;;;;2135934;27;20042;-43
2021/08/19 00:35:28;;;;;;;7.60;5.93;;;;;;;;;;2140762;27;20046;-44
2021/08/19 00:36:30;;;;;;;8.50;6.63;;;;;;;;;;2140706;27;20418;-44
2021/08/19 00:37:33;;;;;;;9.10;5.93;;;;;;;;;;2135427;27;20278;-46
2021/08/19 00:38:34;;;;;;;9.77;7.57;;;;;;;;;;2140211;27;20505;-43
2021/08/19 00:39:35;;;;;;;7.68;6.13;;;;;;;;;;2139806;27;20439;-43
2021/08/19 00:40:36;;;;;;;10.97;5.63;;;;;;;;;;2136057;27;20047;-43
2021/08/19 00:41:37;;;;;;;8.30;5.60;;;;;;;;;;2140350;27;20282;-44
2021/08/19 00:42:38;;;;;;;8.33;5.80;;;;;;;;;;2139817;27;20402;-45
2021/08/19 00:43:39;;;;;;;7.03;5.78;;;;;;;;;;2135290;27;20289;-44
2021/08/19 00:44:41;;;;;;;10.48;6.18;;;;;;;;;;2131704;27;20449;-44
2021/08/19 00:45:42;;;;;;;;;;;;;;;;;;2132911;27;20068;-44
2021/08/19 00:46:44;;;;;;;7.15;5.57;;;;;;;;;;2138329;27;19919;-44
2021/08/19 00:47:45;;;;;;;7.60;4.88;;;;;;;;;;2140386;27;20046;-44
2021/08/19 00:48:46;;;;;;;8.80;6.00;;;;;;;;;;2138227;27;20467;-45
2021/08/19 00:49:47;;;;;;;9.57;5.57;;;;;;;;;;2137568;27;20509;-44
2021/08/19 00:50:48;;;;;;;6.93;5.00;;;;;;;;;;2140210;27;20045;-45
2021/08/19 00:51:50;;;;;;;7.85;5.53;;;;;;;;;;2138093;27;20042;-45
2021/08/19 00:52:51;;;;;;;6.70;5.05;;;;;;;;;;2131893;27;20531;-44
2021/08/19 00:53:55;;;;;;;6.35;5.00;;;;;;;;;;2132616;27;20047;-44
2021/08/19 00:54:56;;;;;;;7.38;5.45;;;;;;;;;;2135265;27;20046;-44
2021/08/19 00:55:57;;;;;;;6.65;5.50;;;;;;;;;;2133982;27;20039;-45
2021/08/19 00:56:59;;;;;;;6.90;5.67;;;;;;;;;;2132289;27;20042;-45
2021/08/19 00:58:00;;;;;;;9.13;5.43;;;;;;;;;;2135071;27;20090;-43
2021/08/19 00:59:02;;;;;;;12.63;6.00;;;;;;;;;;2131576;27;20130;-43
2021/08/19 01:00:04;;;;;;;9.93;6.22;;;;;;;;;;2132230;27;20053;-43
2021/08/19 01:01:05;;;;;;;;;;;;;;;;;;2135361;27;20433;-44
2021/08/19 01:02:07;;;;;;;10.80;7.35;;;;;;;;;;2140737;27;19923;-45
2021/08/19 01:03:08;;;;;;;16.00;8.38;;;;;;;;;;2140928;27;20050;-43
2021/08/19 01:04:10;;;;;;;11.52;7.38;;;;;;;;;;2136228;27;20402;-42
2021/08/19 01:05:11;;;;;;;15.82;8.20;;;;;;;;;;2140977;27;20046;-43
2021/08/19 01:06:12;;;;;;;14.73;7.95;;;;;;;;;;2140582;27;20129;-43
2021/08/19 01:07:14;;;;;;;12.05;7.93;;;;;;;;;;2136134;27;20079;-43
2021/08/19 01:08:15;;;;;;;11.23;7.00;;;;;;;;;;2132247;27;20053;-44
2021/08/19 01:09:16;;;;;;;9.85;7.40;;;;;;;;;;2132784;27;20130;-42
2021/08/19 01:10:17;;;;;;;11.00;7.75;;;;;;;;;;2137872;27;20045;-43
2021/08/19 01:11:19;;;;;;;10.57;7.72;;;;;;;;;;2140987;27;20064;-43
2021/08/19 01:12:20;;;;;;;10.75;7.35;;;;;;;;;;2139936;27;20436;-43
2021/08/19 01:13:21;;;;;;;11.60;8.13;;;;;;;;;;2137226;27;20094;-44
2021/08/19 01:14:23;;;;;;;11.03;7.93;;;;;;;;;;2141064;27;20054;-43
2021/08/19 01:15:24;;;;;;;8.65;6.82;;;;;;;;;;2139207;27;20050;-43
2021/08/19 01:16:25;;;;;;;13.73;7.95;;;;;;;;;;2137230;27;20056;-45
2021/08/19 01:17:28;;;;;;;8.55;6.90;;;;;;;;;;2140916;27;20055;-43
2021/08/19 01:18:39;;;;;;;9.15;6.60;;;;;;;;;;2138919;27;20133;-44
2021/08/19 01:19:44;;;;;;;8.68;7.07;;;;;;;;;;2138596;27;20114;-43
2021/08/19 01:20:45;;;;;;;11.57;6.90;;;;;;;;;;2140945;27;20078;-42
2021/08/19 01:21:46;;;;;;;8.97;6.83;;;;;;;;;;2137247;27;20463;-44
2021/08/19 01:22:47;;;;;;;10.52;6.85;;;;;;;;;;2140114;27;20038;-43
2021/08/19 01:23:49;;;;;;;10.00;7.53;;;;;;;;;;2140811;27;20581;-43
2021/08/19 01:24:50;;;;;;;8.48;6.60;;;;;;;;;;2136260;27;20038;-42
2021/08/19 01:25:51;;;;;;;12.47;7.17;;;;;;;;;;2132172;27;20049;-43
2021/08/19 01:26:53;;;;;;;11.48;7.70;;;;;;;;;;2132186;27;20122;-44
2021/08/19 01:27:55;;;;;;;13.65;7.53;;;;;;;;;;2136419;27;20117;-43
2021/08/19 01:28:55;;;;;;;15.95;8.45;;;;;;;;;;2140757;27;20512;-44
2021/08/19 01:29:57;;;;;;;13.10;8.33;;;;;;;;;;2140465;27;20046;-44
2021/08/19 01:30:58;;;;;;;13.02;8.13;;;;;;;;;;2136445;27;20739;-43
2021/08/19 01:32:00;;;;;;;13.47;8.33;;;;;;;;;;2140905;27;20054;-44
2021/08/19 01:33:01;;;;;;;23.52;8.48;;;;;;;;;;2140579;27;20309;-44
2021/08/19 01:34:02;;;;;;;13.57;8.90;;;;;;;;;;2132464;27;20042;-44
2021/08/19 01:35:04;;;;;;;14.95;8.93;;;;;;;;;;2132280;27;20070;-43
2021/08/19 01:36:05;;;;;;;15.05;9.13;;;;;;;;;;2134811;27;20042;-43
2021/08/19 01:37:06;;;;;;;15.87;9.07;;;;;;;;;;2140939;27;20095;-43
2021/08/19 01:38:07;;;;;;;14.40;8.52;;;;;;;;;;2140616;27;20056;-43
2021/08/19 01:39:08;;;;;;;13.40;9.10;;;;;;;;;;2137281;27;20399;-43
2021/08/19 01:40:10;;;;;;;15.57;8.50;;;;;;;;;;2140750;27;20539;-43
2021/08/19 01:41:11;;;;;;;14.32;9.07;;;;;;;;;;2140354;27;20046;-43
2021/08/19 01:42:12;;;;;;;14.30;7.97;;;;;;;;;;2136378;27;20046;-43
2021/08/19 01:43:13;;;;;;;11.73;7.97;;;;;;;;;;2140684;27;20455;-45
2021/08/19 01:44:15;;;;;;;11.27;7.45;;;;;;;;;;2140326;27;20125;-44
2021/08/19 01:45:16;;;;;;;11.52;7.03;;;;;;;;;;2136458;27;20295;-44
2021/08/19 01:46:17;;;;;;;9.52;6.80;;;;;;;;;;2140946;27;20126;-45
2021/08/19 01:47:21;;;;;;;;;;;;;;;;;;2139841;27;20046;-45
2021/08/19 01:48:22;;;;;;;12.15;7.07;;;;;;;;;;2137783;27;20013;-44
2021/08/19 01:49:23;;;;;;;9.27;6.27;;;;;;;;;;2140605;27;20042;-45
2021/08/19 01:50:24;;;;;;;11.15;7.35;;;;;;;;;;2138620;27;20149;-44
2021/08/19 01:51:25;;;;;;;8.60;6.70;;;;;;;;;;2137964;27;20049;-44
2021/08/19 01:52:26;;;;;;;8.40;6.07;;;;;;;;;;2139066;27;20286;-44
2021/08/19 01:53:27;;;;;;;11.30;6.93;;;;;;;;;;2138542;27;20083;-46
2021/08/19 01:54:28;;;;;;;8.23;6.03;;;;;;;;;;2133882;27;20175;-45
2021/08/19 01:55:29;;;;;;;8.23;6.37;;;;;;;;;;2132081;27;20058;-44
2021/08/19 01:56:30;;;;;;;11.35;7.55;;;;;;;;;;2133258;27;20070;-44
2021/08/19 01:57:31;;;;;;;9.33;6.97;;;;;;;;;;2133803;27;20098;-44
2021/08/19 01:58:33;;;;;;;12.27;6.88;;;;;;;;;;2131868;27;20099;-44
2021/08/19 01:59:35;;;;;;;10.80;6.65;;;;;;;;;;2134153;27;20039;-45
2021/08/19 02:00:36;;;;;;;10.38;7.07;;;;;;;;;;2139233;27;20048;-43
2021/08/19 02:01:38;;;;;;;9.93;6.15;;;;;;;;;;2140563;27;20054;-44
2021/08/19 02:02:39;;;;;;;10.45;6.72;;;;;;;;;;2136585;27;20049;-45
2021/08/19 02:03:40;;;;;;;10.63;7.70;;;;;;;;;;2139657;27;20048;-43
2021/08/19 02:04:41;;;;;;;10.90;6.75;;;;;;;;;;2140575;27;20590;-45
2021/08/19 02:05:42;;;;;;;9.63;6.83;;;;;;;;;;2136058;27;20063;-45
2021/08/19 02:06:43;;;;;;;15.35;7.97;;;;;;;;;;2131887;27;20452;-45
2021/08/19 02:07:44;;;;;;;10.63;7.23;;;;;;;;;;2131823;27;20039;-45
2021/08/19 02:08:45;;;;;;;10.02;7.30;;;;;;;;;;2135184;27;20051;-44
2021/08/19 02:09:46;;;;;;;11.47;6.77;;;;;;;;;;2140429;27;20455;-44
2021/08/19 02:10:47;;;;;;;11.52;7.10;;;;;;;;;;2140459;27;20567;-45
2021/08/19 02:11:48;;;;;;;10.43;7.13;;;;;;;;;;2136707;27;20058;-44
2021/08/19 02:12:49;;;;;;;11.60;7.28;;;;;;;;;;2131941;27;20047;-43
2021/08/19 02:13:51;;;;;;;10.10;6.60;;;;;;;;;;2131876;27;20046;-45
2021/08/19 02:14:52;;;;;;;9.40;7.28;;;;;;;;;;2135096;27;20133;-45
2021/08/19 02:15:53;;;;;;;12.23;7.83;;;;;;;;;;2131756;27;20050;-45
2021/08/19 02:16:54;;;;;;;11.13;7.25;;;;;;;;;;2132834;27;20075;-45
2021/08/19 02:17:55;;;;;;;11.23;6.83;;;;;;;;;;2136247;27;20053;-44
2021/08/19 02:18:56;;;;;;;9.40;6.68;;;;;;;;;;2140397;27;20425;-45
2021/08/19 02:19:57;;;;;;;9.70;7.43;;;;;;;;;;2139407;27;20050;-44
2021/08/19 02:20:58;;;;;;;12.82;7.40;;;;;;;;;;2137061;27;20125;-45
2021/08/19 02:21:59;;;;;;;9.83;7.23;;;;;;;;;;2140437;27;20479;-45
2021/08/19 02:23:00;;;;;;;11.27;7.60;;;;;;;;;;2138477;27;20040;-43
2021/08/19 02:24:02;;;;;;;11.68;6.68;;;;;;;;;;2137856;27;20129;-43
2021/08/19 02:25:03;;;;;;;13.05;7.57;;;;;;;;;;2140524;27;20053;-44
2021/08/19 02:26:04;;;;;;;11.63;7.15;;;;;;;;;;2138545;27;20085;-44
2021/08/19 02:27:05;;;;;;;10.75;6.50;;;;;;;;;;2133837;27;20134;-45
2021/08/19 02:28:06;;;;;;;10.97;6.77;;;;;;;;;;2131800;27;20130;-44
2021/08/19 02:29:08;;;;;;;10.20;6.70;;;;;;;;;;2133507;27;20464;-44
2021/08/19 02:30:10;;;;;;;12.30;7.80;;;;;;;;;;2138663;27;20443;-44
2021/08/19 02:31:10;;;;;;;12.27;8.02;;;;;;;;;;2140461;27;20167;-44
2021/08/19 02:32:12;;;;;;;11.33;7.50;;;;;;;;;;2136960;27;20084;-44
2021/08/19 02:33:13;;;;;;;9.93;7.57;;;;;;;;;;2139104;27;20133;-44
2021/08/19 02:34:14;;;;;;;10.10;7.77;;;;;;;;;;2140387;27;20043;-44
2021/08/19 02:35:14;;;;;;;10.80;6.90;;;;;;;;;;2137038;27;20126;-43
2021/08/19 02:36:16;;;;;;;12.87;7.07;;;;;;;;;;2139197;27;20499;-44
2021/08/19 02:37:16;;;;;;;8.73;7.35;;;;;;;;;;2140402;27;20046;-45
2021/08/19 02:38:17;;;;;;;11.40;8.17;;;;;;;;;;2138031;27;20042;-45
2021/08/19 02:39:18;;;;;;;12.18;7.90;;;;;;;;;;2131800;27;20047;-44
2021/08/19 02:40:20;;;;;;;9.97;7.43;;;;;;;;;;2131836;27;20043;-44
2021/08/19 02:41:20;;;;;;;13.85;7.25;;;;;;;;;;2135526;27;20044;-44
2021/08/19 02:42:22;;;;;;;9.07;7.30;;;;;;;;;;2140244;27;20046;-44
2021/08/19 02:43:22;;;;;;;9.57;6.60;;;;;;;;;;2140227;27;20129;-44
2021/08/19 02:44:24;;;;;;;10.53;7.50;;;;;;;;;;2135373;27;20128;-44
2021/08/19 02:45:25;;;;;;;12.77;7.50;;;;;;;;;;2139873;27;20486;-43
2021/08/19 02:46:28;;;;;;;9.87;7.20;;;;;;;;;;2139991;27;20053;-43
2021/08/19 02:47:29;;;;;;;7.07;6.20;;;;;;;;;;2137100;27;20058;-44
2021/08/19 02:48:30;;;;;;;10.57;6.87;;;;;;;;;;2140389;27;20046;-44
2021/08/19 02:49:31;;;;;;;12.77;6.85;;;;;;;;;;2139779;27;20686;-45
2021/08/19 02:50:32;;;;;;;8.57;6.40;;;;;;;;;;2135996;27;20039;-44
2021/08/19 02:51:33;;;;;;;8.13;6.35;;;;;;;;;;2140340;27;20182;-43
2021/08/19 02:52:34;;;;;;;10.60;6.50;;;;;;;;;;2137639;27;20034;-43
2021/08/19 02:53:35;;;;;;;10.02;5.85;;;;;;;;;;2136719;27;20452;-44
2021/08/19 02:54:36;;;;;;;11.33;7.27;;;;;;;;;;2140261;27;20046;-45
2021/08/19 02:55:36;;;;;;;6.93;6.20;;;;;;;;;;2138359;27;20129;-44
2021/08/19 02:56:40;;;;;;;10.43;7.00;;;;;;;;;;2137430;27;20046;-43
2021/08/19 02:57:40;;;;;;;9.82;6.88;;;;;;;;;;2140147;27;20046;-43
2021/08/19 02:58:42;;;;;;;9.67;7.10;;;;;;;;;;2138160;27;20039;-43
2021/08/19 02:59:43;;;;;;;11.05;7.22;;;;;;;;;;2137663;27;20365;-43
2021/08/19 03:00:44;;;;;;;8.40;6.65;;;;;;;;;;2140050;27;20043;-44
2021/08/19 03:01:45;;;;;;;8.60;6.28;;;;;;;;;;2137795;27;20402;-45
2021/08/19 03:02:47;;;;;;;9.27;7.22;;;;;;;;;;2137691;27;20052;-44
2021/08/19 03:03:49;;;;;;;12.77;7.13;;;;;;;;;;2140026;27;20046;-43
2021/08/19 03:04:50;;;;;;;11.55;7.85;;;;;;;;;;2136797;27;20087;-45
2021/08/19 03:05:51;;;;;;;12.25;6.43;;;;;;;;;;2139873;27;20038;-44
2021/08/19 03:06:52;;;;;;;10.57;7.32;;;;;;;;;;2140286;27;20121;-44
2021/08/19 03:07:53;;;;;;;11.30;7.57;;;;;;;;;;2137664;27;20578;-44
2021/08/19 03:08:54;;;;;;;9.70;6.97;;;;;;;;;;2131559;27;20034;-43
2021/08/19 03:09:55;;;;;;;8.53;6.73;;;;;;;;;;2131471;27;20043;-44
2021/08/19 03:10:56;;;;;;;9.77;6.30;;;;;;;;;;2135265;27;20111;-43
2021/08/19 03:11:57;;;;;;;9.60;6.83;;;;;;;;;;2139658;27;20184;-44
2021/08/19 03:12:58;;;;;;;11.82;7.13;;;;;;;;;;2140068;27;20047;-45
2021/08/19 03:13:59;;;;;;;10.13;7.60;;;;;;;;;;2136672;27;20049;-43
2021/08/19 03:15:00;;;;;;;10.85;7.25;;;;;;;;;;2140077;27;20038;-44
2021/08/19 03:16:02;;;;;;;10.73;6.95;;;;;;;;;;2140086;27;20046;-43
2021/08/19 03:17:03;;;;;;;12.07;6.90;;;;;;;;;;2135345;27;20069;-44
2021/08/19 03:18:04;;;;;;;9.48;6.63;;;;;;;;;;2140096;27;20577;-43
2021/08/19 03:19:05;;;;;;;12.70;7.32;;;;;;;;;;2139602;27;20623;-44
2021/08/19 03:20:08;;;;;;;10.20;6.60;;;;;;;;;;2135789;27;20050;-44
2021/08/19 03:21:09;;;;;;;8.57;6.90;;;;;;;;;;2139994;27;20046;-43
2021/08/19 03:22:10;;;;;;;10.23;7.47;;;;;;;;;;2139705;27;20121;-45
2021/08/19 03:23:11;;;;;;;10.13;7.22;;;;;;;;;;2135416;27;20134;-43
2021/08/19 03:24:13;;;;;;;8.93;7.03;;;;;;;;;;2131391;27;20058;-43
2021/08/19 03:25:14;;;;;;;;;;;;;;;;;;2132740;27;20127;-43
2021/08/19 03:26:15;;;;;;;10.52;6.53;;;;;;;;;;2136798;27;19919;-44
2021/08/19 03:27:16;;;;;;;12.40;6.95;;;;;;;;;;2140145;27;20114;-44
2021/08/19 03:28:17;;;;;;;8.63;6.78;;;;;;;;;;2138187;27;20497;-43
2021/08/19 03:29:18;;;;;;;13.30;8.00;;;;;;;;;;2138662;27;20045;-43
2021/08/19 03:30:20;;;;;;;10.52;7.38;;;;;;;;;;2139987;27;20758;-44
2021/08/19 03:31:21;;;;;;;13.65;7.32;;;;;;;;;;2137920;27;20391;-43
2021/08/19 03:32:22;;;;;;;10.45;7.03;;;;;;;;;;2136373;27;20098;-43
2021/08/19 03:33:23;;;;;;;11.60;7.45;;;;;;;;;;2140101;27;20073;-43
2021/08/19 03:34:24;;;;;;;9.13;7.57;;;;;;;;;;2136827;27;20468;-44
2021/08/19 03:35:25;;;;;;;11.75;7.30;;;;;;;;;;2133613;27;20126;-43
2021/08/19 03:36:26;;;;;;;12.20;7.63;;;;;;;;;;2131129;27;20057;-43
2021/08/19 03:37:29;;;;;;;10.27;7.85;;;;;;;;;;2134186;27;20126;-43
2021/08/19 03:38:30;;;;;;;10.57;8.00;;;;;;;;;;2138761;27;20050;-44
2021/08/19 03:39:31;;;;;;;9.27;7.70;;;;;;;;;;2139943;27;20393;-43
2021/08/19 03:40:33;;;;;;;13.90;8.90;;;;;;;;;;2136249;27;20628;-44
2021/08/19 03:41:34;;;;;;;11.23;7.82;;;;;;;;;;2138944;27;20125;-44
2021/08/19 03:42:37;;;;;;;14.52;7.80;;;;;;;;;;2139996;27;20042;-45
2021/08/19 03:43:39;;;;;;;11.38;7.15;;;;;;;;;;2136499;27;20034;-43
2021/08/19 03:44:40;;;;;;;10.63;7.70;;;;;;;;;;2139992;27;20050;-43
2021/08/19 03:45:41;;;;;;;8.63;7.37;;;;;;;;;;2140000;27;20056;-46
2021/08/19 03:46:42;;;;;;;11.48;7.22;;;;;;;;;;2135190;27;20483;-42
2021/08/19 03:47:43;;;;;;;10.83;7.27;;;;;;;;;;2139872;27;20039;-44
2021/08/19 03:48:44;;;;;;;10.10;7.32;;;;;;;;;;2139430;27;20125;-43
2021/08/19 03:49:46;;;;;;;14.43;7.47;;;;;;;;;;2136776;27;20433;-42
2021/08/19 03:50:47;;;;;;;9.52;7.40;;;;;;;;;;2139712;27;20098;-42
2021/08/19 03:51:48;;;;;;;10.13;8.00;;;;;;;;;;2139500;27;20053;-43
2021/08/19 03:52:49;;;;;;;10.35;7.18;;;;;;;;;;2133394;27;20127;-42
2021/08/19 03:53:54;;;;;;;10.90;7.65;;;;;;;;;;2131374;27;20046;-42
2021/08/19 03:54:55;;;;;;;9.55;7.40;;;;;;;;;;2132032;27;20049;-42
2021/08/19 03:55:56;;;;;;;10.40;7.23;;;;;;;;;;2136778;27;20046;-43
2021/08/19 03:56:57;;;;;;;9.98;7.63;;;;;;;;;;2140325;27;20094;-43
2021/08/19 03:57:58;;;;;;;10.90;7.97;;;;;;;;;;2137086;27;20072;-43
2021/08/19 03:58:59;;;;;;;11.07;7.68;;;;;;;;;;2138864;27;20046;-42
2021/08/19 04:00:00;;;;;;;12.43;7.40;;;;;;;;;;2141309;27;20544;-43
2021/08/19 04:01:02;;;;;;;10.50;7.32;;;;;;;;;;2139300;27;20091;-43
2021/08/19 04:02:04;;;;;;;11.40;8.00;;;;;;;;;;2139164;27;20042;-43
2021/08/19 04:03:05;;;;;;;12.70;8.20;;;;;;;;;;2141296;27;20455;-44
2021/08/19 04:04:07;;;;;;;13.50;7.95;;;;;;;;;;2138102;27;20604;-42
2021/08/19 04:05:08;;;;;;;16.58;7.93;;;;;;;;;;2139126;27;20042;-44
2021/08/19 04:06:12;;;;;;;10.50;8.00;;;;;;;;;;2141326;27;20053;-43
2021/08/19 04:07:12;;;;;;;9.60;7.88;;;;;;;;;;2139080;27;20465;-43
2021/08/19 04:08:14;;;;;;;15.40;9.27;;;;;;;;;;2132574;27;20043;-42
2021/08/19 04:09:14;;;;;;;14.93;8.30;;;;;;;;;;2132826;27;20046;-42
2021/08/19 04:10:16;;;;;;;15.27;8.27;;;;;;;;;;2135505;27;20483;-43
2021/08/19 04:11:16;;;;;;;9.98;7.80;;;;;;;;;;2140878;27;20133;-43
2021/08/19 04:12:18;;;;;;;10.47;8.50;;;;;;;;;;2141151;27;20068;-42
2021/08/19 04:13:19;;;;;;;13.05;8.35;;;;;;;;;;2136779;27;20054;-42
2021/08/19 04:14:20;;;;;;;11.07;8.50;;;;;;;;;;2141416;27;20414;-44
2021/08/19 04:15:24;;;;;;;9.90;8.00;;;;;;;;;;2141240;27;20122;-44
2021/08/19 04:16:25;;;;;;;11.10;7.93;;;;;;;;;;2137624;27;20046;-43
2021/08/19 04:17:26;;;;;;;;;;;;;;;;;;2141691;27;20046;-43
2021/08/19 04:18:27;;;;;;;10.10;7.30;;;;;;;;;;2140748;27;19922;-43
2021/08/19 04:19:28;;;;;;;10.88;7.13;;;;;;;;;;2136929;27;20574;-42
2021/08/19 04:20:30;;;;;;;10.63;7.23;;;;;;;;;;2141438;27;20053;-43
2021/08/19 04:21:31;;;;;;;10.77;8.50;;;;;;;;;;2140917;27;20054;-42
2021/08/19 04:22:32;;;;;;;10.50;8.23;;;;;;;;;;2135144;27;20055;-42
2021/08/19 04:23:33;;;;;;;13.02;9.63;;;;;;;;;;2132741;27;20103;-43
2021/08/19 04:24:34;;;;;;;12.25;9.45;;;;;;;;;;2133429;27;20487;-43
2021/08/19 04:25:35;;;;;;;14.88;10.27;;;;;;;;;;2138037;27;20126;-43
2021/08/19 04:26:36;;;;;;;12.07;10.10;;;;;;;;;;2141174;27;20480;-43
2021/08/19 04:27:37;;;;;;;13.95;9.95;;;;;;;;;;2137950;27;24579;-42
2021/08/19 04:28:38;;;;;;;13.70;10.03;;;;;;;;;;2136310;27;20043;-42
2021/08/19 04:29:39;;;;;;;10.75;8.88;;;;;;;;;;2132779;27;20121;-42
2021/08/19 04:30:40;;;;;;;10.73;8.10;;;;;;;;;;2135910;27;20133;-43
2021/08/19 04:31:42;;;;;;;12.77;9.23;;;;;;;;;;2134643;27;20391;-42
2021/08/19 04:32:43;;;;;;;8.82;6.85;;;;;;;;;;2132419;27;20514;-42
2021/08/19 04:33:44;;;;;;;12.23;8.10;;;;;;;;;;2134328;27;20057;-42
2021/08/19 04:34:45;;;;;;;11.70;8.95;;;;;;;;;;2140658;27;20368;-43
2021/08/19 04:35:46;;;;;;;13.20;8.00;;;;;;;;;;2141244;27;20042;-44
2021/08/19 04:36:47;;;;;;;9.80;7.88;;;;;;;;;;2137810;27;20146;-44
2021/08/19 04:37:49;;;;;;;10.37;7.43;;;;;;;;;;2139813;27;20474;-43
2021/08/19 04:38:49;;;;;;;;;;;;;;;;;;2141679;27;20474;-44
2021/08/19 04:39:50;;;;;;;12.52;8.35;;;;;;;;;;2138972;27;19918;-44
2021/08/19 04:40:51;;;;;;;13.65;7.57;;;;;;;;;;2132465;27;20049;-44
2021/08/19 04:41:52;;;;;;;9.13;7.10;;;;;;;;;;2140491;27;20509;-44
2021/08/19 04:42:53;;;;;;;12.68;8.27;;;;;;;;;;2138662;27;20046;-43
2021/08/19 04:43:55;;;;;;;11.27;8.27;;;;;;;;;;2132719;27;20039;-43
2021/08/19 04:44:56;;;;;;;11.88;8.35;;;;;;;;;;2132478;27;20118;-43
2021/08/19 04:45:57;;;;;;;9.70;7.57;;;;;;;;;;2137385;27;20046;-43
2021/08/19 04:46:59;;;;;;;10.07;7.63;;;;;;;;;;2132536;27;20275;-44
2021/08/19 04:48:00;;;;;;;10.20;8.05;;;;;;;;;;2132507;27;20046;-43
2021/08/19 04:49:05;;;;;;;10.63;8.00;;;;;;;;;;2136092;27;20137;-43
2021/08/19 04:50:07;;;;;;;12.43;8.25;;;;;;;;;;2141114;27;20444;-44
2021/08/19 04:51:08;;;;;;;10.75;7.45;;;;;;;;;;2140831;27;20048;-43
2021/08/19 04:52:09;;;;;;;12.90;8.47;;;;;;;;;;2136143;27;20387;-44
2021/08/19 04:53:10;;;;;;;11.70;8.55;;;;;;;;;;2132470;27;20038;-43
2021/08/19 04:54:11;;;;;;;12.93;8.10;;;;;;;;;;2133111;27;20047;-43
2021/08/19 04:55:15;;;;;;;12.15;8.43;;;;;;;;;;2137822;27;20567;-43
2021/08/19 04:56:16;;;;;;;14.60;8.63;;;;;;;;;;2140951;27;20046;-43
2021/08/19 04:57:17;;;;;;;12.80;7.57;;;;;;;;;;2138923;27;20569;-43
2021/08/19 04:58:18;;;;;;;11.43;8.30;;;;;;;;;;2139260;27;20114;-44
2021/08/19 04:59:19;;;;;;;10.50;8.02;;;;;;;;;;2141172;27;20077;-43
2021/08/19 05:00:20;;;;;;;11.60;7.83;;;;;;;;;;2139061;27;20042;-44
2021/08/19 05:01:21;;;;;;;10.68;8.02;;;;;;;;;;2135488;27;20062;-43
2021/08/19 05:02:23;;;;;;;11.40;8.05;;;;;;;;;;2132463;27;20058;-43
2021/08/19 05:03:24;;;;;;;;;;;;;;;;;;2139246;27;20043;-43
2021/08/19 05:04:26;;;;;;;11.85;7.63;;;;;;;;;;2134666;27;19927;-43
2021/08/19 05:05:26;;;;;;;12.25;8.10;;;;;;;;;;2135003;27;20046;-43
2021/08/19 05:06:28;;;;;;;14.07;8.00;;;;;;;;;;2137808;27;20051;-43
2021/08/19 05:07:30;;;;;;;12.60;7.60;;;;;;;;;;2139544;27;20091;-44
2021/08/19 05:08:31;;;;;;;9.77;7.43;;;;;;;;;;2140724;27;20054;-43
2021/08/19 05:09:32;;;;;;;9.85;7.45;;;;;;;;;;2137271;27;20053;-43
2021/08/19 05:10:33;;;;;;;13.60;8.00;;;;;;;;;;2140117;27;20054;-43
2021/08/19 05:11:35;;;;;;;8.90;7.20;;;;;;;;;;2141019;27;20137;-43
2021/08/19 05:12:36;;;;;;;8.48;6.55;;;;;;;;;;2136419;27;20484;-43
2021/08/19 05:13:37;;;;;;;10.75;6.95;;;;;;;;;;2140852;27;20042;-43
2021/08/19 05:14:38;;;;;;;8.20;6.50;;;;;;;;;;2140926;27;20477;-43
2021/08/19 05:15:39;;;;;;;7.43;6.68;;;;;;;;;;2138049;27;20042;-42
2021/08/19 05:16:40;;;;;;;7.50;6.73;;;;;;;;;;2132103;27;20448;-43
2021/08/19 05:17:41;;;;;;;13.45;7.40;;;;;;;;;;2132260;27;20138;-43
2021/08/19 05:18:43;;;;;;;8.70;7.25;;;;;;;;;;2135911;27;20404;-43
2021/08/19 05:19:44;;;;;;;8.95;7.20;;;;;;;;;;2140852;27;20384;-42
2021/08/19 05:20:45;;;;;;;10.68;7.85;;;;;;;;;;2140411;27;20038;-43
2021/08/19 05:21:46;;;;;;;11.00;7.63;;;;;;;;;;2136477;27;20093;-43
2021/08/19 05:22:47;;;;;;;10.55;8.05;;;;;;;;;;2140726;27;20050;-43
2021/08/19 05:23:48;;;;;;;9.00;6.82;;;;;;;;;;2140399;27;20509;-43
2021/08/19 05:24:49;;;;;;;9.40;6.82;;;;;;;;;;2136826;27;20137;-43
2021/08/19 05:25:50;;;;;;;11.57;7.53;;;;;;;;;;2141001;27;20046;-43
2021/08/19 05:26:51;;;;;;;14.85;7.88;;;;;;;;;;2139786;27;20171;-43
2021/08/19 05:27:52;;;;;;;15.17;8.13;;;;;;;;;;2137502;27;20596;-43
2021/08/19 05:28:53;;;;;;;9.82;7.38;;;;;;;;;;2140773;27;20066;-43
2021/08/19 05:29:54;;;;;;;11.50;7.90;;;;;;;;;;2138725;27;20042;-44
2021/08/19 05:30:55;;;;;;;12.77;7.75;;;;;;;;;;2138253;27;20046;-43
2021/08/19 05:31:56;;;;;;;10.50;8.18;;;;;;;;;;2140815;27;20046;-43
2021/08/19 05:32:58;;;;;;;10.10;7.77;;;;;;;;;;2138659;27;20042;-43
2021/08/19 05:33:59;;;;;;;8.43;7.03;;;;;;;;;;2138218;27;20128;-43
2021/08/19 05:35:03;;;;;;;15.98;7.28;;;;;;;;;;2140915;27;20038;-43
2021/08/19 05:36:08;;;;;;;7.65;6.38;;;;;;;;;;2137631;27;20139;-44
2021/08/19 05:37:09;;;;;;;13.18;7.43;;;;;;;;;;2138680;27;20149;-43
2021/08/19 05:38:10;;;;;;;10.20;7.20;;;;;;;;;;2140672;27;20046;-44
2021/08/19 05:39:11;;;;;;;11.70;8.70;;;;;;;;;;2137357;27;20035;-43
2021/08/19 05:40:12;;;;;;;8.85;7.03;;;;;;;;;;2139599;27;20098;-43
2021/08/19 05:41:13;;;;;;;10.82;7.63;;;;;;;;;;2140380;27;20042;-42
2021/08/19 05:42:14;;;;;;;10.27;7.45;;;;;;;;;;2136585;27;20491;-42
2021/08/19 05:43:15;;;;;;;11.17;7.77;;;;;;;;;;2140272;27;20050;-43
2021/08/19 05:44:16;;;;;;;9.52;7.80;;;;;;;;;;2140680;27;20117;-42
2021/08/19 05:45:17;;;;;;;9.27;7.38;;;;;;;;;;2135941;27;20066;-43
2021/08/19 05:46:18;;;;;;;10.60;6.82;;;;;;;;;;2140590;27;20137;-44
2021/08/19 05:47:19;;;;;;;7.95;6.55;;;;;;;;;;2140531;27;20132;-43
2021/08/19 05:48:21;;;;;;;9.85;6.60;;;;;;;;;;2136078;27;20127;-42
2021/08/19 05:49:22;;;;;;;9.10;6.55;;;;;;;;;;2140796;27;20129;-43
2021/08/19 05:50:23;;;;;;;9.63;6.87;;;;;;;;;;2136633;27;20163;-44
2021/08/19 05:51:24;;;;;;;11.40;7.97;;;;;;;;;;2135840;27;20141;-44
2021/08/19 05:52:25;;;;;;;8.23;6.05;;;;;;;;;;2132704;27;20043;-44
2021/08/19 05:53:26;;;;;;;10.35;6.65;;;;;;;;;;2140372;27;20132;-44
2021/08/19 05:54:27;;;;;;;10.70;6.67;;;;;;;;;;2136348;27;20479;-44
2021/08/19 05:55:28;;;;;;;7.97;6.72;;;;;;;;;;2140741;27;20060;-44
2021/08/19 05:56:30;;;;;;;8.20;6.53;;;;;;;;;;2139689;27;20119;-43
2021/08/19 05:57:31;;;;;;;12.13;7.38;;;;;;;;;;2137055;27;20048;-44
2021/08/19 05:58:32;;;;;;;9.75;6.93;;;;;;;;;;2140519;27;20136;-43
2021/08/19 05:59:33;;;;;;;11.52;7.10;;;;;;;;;;2138601;27;20562;-43
2021/08/19 06:00:35;;;;;;;9.87;6.90;;;;;;;;;;2137928;27;20038;-43
2021/08/19 06:01:37;;;;;;;10.40;7.78;;;;;;;;;;2140028;27;20517;-43
2021/08/19 06:02:38;;;;;;;10.85;7.05;;;;;;;;;;2138063;27;20046;-44
2021/08/19 06:03:40;;;;;;;7.55;6.68;;;;;;;;;;2134547;27;20061;-44
2021/08/19 06:04:41;;;;;;;12.43;7.40;;;;;;;;;;2131347;27;20568;-43
2021/08/19 06:05:43;;;;;;;;;;;;;;;;;;2133537;27;20038;-44